CYWG/YWG METAR and TAF weather

Enter ICAO airport designator
Station Type Date Time Source
CYWG METAR 2019/06/26 22:00 UTC NOAA

CYWG 262200Z 29014G22KT 15SM SCT065 28/10 A2990 RMK CU3 SLP127 DENSITY ALT 2500FT


Station Type Date Time Source
CYWG Decoded METAR 2019/06/26 22:00 UTC NOAA

Winnipeg Int. Airportman., Canada (CYWG) 49-54N 097-14W 239M
Jun 26, 2019 - 06:00 PM EDT / 2019.06.26 2200 UTC
Wind: from the WNW (290 degrees) at 16 MPH (14 KT) gusting to 25 MPH (22 KT):0
Visibility: 15 mile(s):0
Sky conditions: partly cloudy
Temperature: 82 F (28 C)
Dew Point: 50 F (10 C)
Relative Humidity: 32%
Pressure (altimeter): 29.9 in. Hg (1012 hPa)
ob: CYWG 262200Z 29014G22KT 15SM SCT065 28/10 A2990 RMK CU3 SLP127 DENSITY ALT 2500FT
cycle: 22

Station Type Date Time Source
CYWG TAF 2019/06/26 18:39 UTC NOAA

TAF CYWG 261738Z 2618/2718 29012KT P6SM FEW050
TEMPO 2621/2701 P6SM VCTS SCT050CB
FM270100 32005KT P6SM FEW080
BECMG 2708/2710 04005KT
FM271600 06008KT P6SM SCT150
RMK NXT FCST BY 270000Z

Example: see airport list